Time;durP1;ratioP1;P1;durP2;ratioP2;P2;SDS_P1;SDS_P2;PMS_P1;PMS_P2;Temp;Humidity;BMP_temperature;BMP_pressure;BME280_temperature;BME280_humidity;BME280_pressure;Samples;Min_cycle;Max_cycle;Signal;HPM_P1;HPM_P2
2023/08/03 00:00:05;;;;;;;4.30;1.70;;;;;;;;;;5091403;28;20036;-61
2023/08/03 00:02:35;;;;;;;5.45;1.73;;;;;;;;;;5091541;28;20039;-61
2023/08/03 00:05:02;;;;;;;6.20;1.77;;;;;;;;;;5091666;28;20047;-61
2023/08/03 00:07:28;;;;;;;9.40;1.70;;;;;;;;;;5095122;28;20077;-61
2023/08/03 00:09:55;;;;;;;4.85;2.03;;;;;;;;;;5111951;28;20039;-61
2023/08/03 00:12:22;;;;;;;5.13;1.90;;;;;;;;;;5111474;28;20058;-61
2023/08/03 00:14:49;;;;;;;6.55;1.70;;;;;;;;;;5111349;28;20195;-61
2023/08/03 00:17:15;;;;;;;5.82;1.70;;;;;;;;;;5111847;28;20118;-61
2023/08/03 00:19:41;;;;;;;6.18;1.67;;;;;;;;;;5111732;28;20430;-61
2023/08/03 00:22:09;;;;;;;9.63;1.95;;;;;;;;;;5111207;28;20044;-61
2023/08/03 00:24:35;;;;;;;7.95;1.73;;;;;;;;;;5110433;28;20039;-61
2023/08/03 00:27:01;;;;;;;5.90;1.48;;;;;;;;;;5094394;28;20044;-61
2023/08/03 00:29:27;;;;;;;6.47;1.40;;;;;;;;;;5090804;28;20062;-61
2023/08/03 00:31:52;;;;;;;8.77;1.70;;;;;;;;;;5090773;28;20445;-61
2023/08/03 00:34:18;;;;;;;12.32;1.63;;;;;;;;;;5090815;28;20054;-61
2023/08/03 00:36:44;;;;;;;4.38;1.50;;;;;;;;;;5090827;28;20071;-61
2023/08/03 00:39:10;;;;;;;6.30;1.63;;;;;;;;;;5091253;28;20097;-61
2023/08/03 00:41:36;;;;;;;5.57;1.40;;;;;;;;;;5091141;28;20538;-61
2023/08/03 00:44:02;;;;;;;4.43;1.15;;;;;;;;;;5090634;28;20040;-61
2023/08/03 00:46:29;;;;;;;5.97;1.45;;;;;;;;;;5090566;28;20486;-61
2023/08/03 00:48:55;;;;;;;2.88;1.52;;;;;;;;;;5090655;28;20040;-61
2023/08/03 00:51:20;;;;;;;4.60;1.60;;;;;;;;;;5090952;28;20051;-61
2023/08/03 00:53:46;;;;;;;6.47;1.60;;;;;;;;;;5090306;28;20441;-61
2023/08/03 00:56:13;;;;;;;2.30;1.52;;;;;;;;;;5090816;28;20040;-61
2023/08/03 00:58:39;;;;;;;7.43;1.30;;;;;;;;;;5090663;28;20108;-61
2023/08/03 01:01:06;;;;;;;3.25;1.30;;;;;;;;;;5090016;28;20072;-61
2023/08/03 01:03:32;;;;;;;5.00;1.15;;;;;;;;;;5090362;28;20485;-61
2023/08/03 01:05:58;;;;;;;4.38;1.17;;;;;;;;;;5090620;28;20571;-61
2023/08/03 01:08:24;;;;;;;3.03;1.20;;;;;;;;;;5101484;28;20043;-61
2023/08/03 01:10:51;;;;;;;3.88;1.23;;;;;;;;;;5110849;28;20498;-61
2023/08/03 01:13:17;;;;;;;2.25;1.20;;;;;;;;;;5110455;28;20063;-61
2023/08/03 01:15:43;;;;;;;2.92;1.10;;;;;;;;;;5110299;28;20444;-61
2023/08/03 01:18:09;;;;;;;4.15;1.38;;;;;;;;;;5110210;28;20075;-61
2023/08/03 01:20:36;;;;;;;1.88;1.10;;;;;;;;;;5110684;28;20078;-61
2023/08/03 01:23:04;;;;;;;13.27;1.33;;;;;;;;;;5110248;28;20039;-61
2023/08/03 01:25:31;;;;;;;6.90;1.38;;;;;;;;;;5110463;28;20542;-61
2023/08/03 01:27:57;;;;;;;4.00;1.25;;;;;;;;;;5110504;28;20123;-61
2023/08/03 01:30:24;;;;;;;1.85;1.00;;;;;;;;;;5110195;28;20127;-61
2023/08/03 01:32:50;;;;;;;1.73;1.10;;;;;;;;;;5110039;28;20035;-61
2023/08/03 01:35:16;;;;;;;3.17;1.25;;;;;;;;;;5110309;28;20046;-61
2023/08/03 01:37:42;;;;;;;2.00;1.10;;;;;;;;;;5110199;28;20111;-61
2023/08/03 01:40:10;;;;;;;1.38;1.08;;;;;;;;;;5110364;28;20331;-61
2023/08/03 01:42:36;;;;;;;1.77;1.02;;;;;;;;;;5110258;28;20044;-61
2023/08/03 01:45:03;;;;;;;2.10;1.20;;;;;;;;;;5108019;28;20050;-61
2023/08/03 01:47:28;;;;;;;5.38;1.27;;;;;;;;;;5110048;28;20058;-61
2023/08/03 01:49:54;;;;;;;1.42;1.20;;;;;;;;;;5110057;28;20588;-61
2023/08/03 01:52:20;;;;;;;4.10;1.50;;;;;;;;;;5109590;28;20366;-61
2023/08/03 01:54:46;;;;;;;2.80;1.58;;;;;;;;;;5109757;28;20405;-61
2023/08/03 01:57:14;;;;;;;3.22;1.40;;;;;;;;;;5109624;28;20040;-61
2023/08/03 01:59:40;;;;;;;2.55;1.50;;;;;;;;;;5109025;28;20035;-61
2023/08/03 02:02:06;;;;;;;2.55;1.33;;;;;;;;;;5109948;28;20031;-61
2023/08/03 02:04:32;;;;;;;4.15;1.95;;;;;;;;;;5109087;28;20046;-61
2023/08/03 02:07:08;;;;;;;3.08;1.42;;;;;;;;;;5109360;28;20046;-61
2023/08/03 02:09:34;;;;;;;2.17;1.50;;;;;;;;;;5087971;28;20047;-61
2023/08/03 02:12:00;;;;;;;2.70;1.40;;;;;;;;;;5088970;28;20174;-61
2023/08/03 02:14:26;;;;;;;3.50;1.65;;;;;;;;;;5088711;28;20122;-61
2023/08/03 02:16:52;;;;;;;3.75;1.65;;;;;;;;;;5089396;28;20036;-61
2023/08/03 02:19:18;;;;;;;5.07;1.65;;;;;;;;;;5089628;28;20036;-61
2023/08/03 02:21:44;;;;;;;4.03;2.10;;;;;;;;;;5089037;28;20040;-61
2023/08/03 02:24:10;;;;;;;4.93;1.70;;;;;;;;;;5089072;28;20493;-61
2023/08/03 02:26:36;;;;;;;4.05;1.60;;;;;;;;;;5103051;28;20588;-61
2023/08/03 02:29:02;;;;;;;3.75;1.60;;;;;;;;;;5108986;28;20405;-61
2023/08/03 02:31:28;;;;;;;4.68;1.80;;;;;;;;;;5109555;28;20252;-61
2023/08/03 02:33:54;;;;;;;4.25;1.50;;;;;;;;;;5109339;28;20040;-61
2023/08/03 02:36:20;;;;;;;2.60;2.08;;;;;;;;;;5109106;28;20541;-61
2023/08/03 02:38:46;;;;;;;4.57;2.20;;;;;;;;;;5109270;28;20482;-61
2023/08/03 02:41:12;;;;;;;3.08;2.13;;;;;;;;;;5109462;28;20066;-61
2023/08/03 02:43:38;;;;;;;4.68;2.50;;;;;;;;;;5109120;28;20070;-61
2023/08/03 02:46:03;;;;;;;5.03;3.20;;;;;;;;;;5109294;28;20046;-61
2023/08/03 02:48:29;;;;;;;4.47;2.85;;;;;;;;;;5109425;28;20577;-61
2023/08/03 02:50:55;;;;;;;4.38;3.30;;;;;;;;;;5108907;28;20035;-61
2023/08/03 02:53:21;;;;;;;8.13;3.95;;;;;;;;;;5109070;28;20496;-61
2023/08/03 02:55:47;;;;;;;7.90;3.85;;;;;;;;;;5108079;28;20047;-61
2023/08/03 02:58:13;;;;;;;9.70;4.10;;;;;;;;;;5108972;28;20120;-61
2023/08/03 03:00:40;;;;;;;11.52;4.70;;;;;;;;;;5107591;28;20478;-61
2023/08/03 03:03:06;;;;;;;8.73;4.63;;;;;;;;;;5109291;28;20040;-61
2023/08/03 03:05:32;;;;;;;13.60;5.03;;;;;;;;;;5109106;28;20473;-61
2023/08/03 03:07:58;;;;;;;14.02;5.45;;;;;;;;;;5109056;28;20043;-61
2023/08/03 03:10:24;;;;;;;9.18;4.70;;;;;;;;;;5108946;28;20043;-61
2023/08/03 03:12:50;;;;;;;11.00;5.13;;;;;;;;;;5110882;28;20375;-61
2023/08/03 03:15:16;;;;;;;10.32;5.20;;;;;;;;;;5112619;28;20046;-61
2023/08/03 03:17:42;;;;;;;11.07;5.72;;;;;;;;;;5113024;28;20036;-61
2023/08/03 03:20:09;;;;;;;12.23;5.43;;;;;;;;;;5112608;28;20039;-61
2023/08/03 03:22:35;;;;;;;10.50;5.55;;;;;;;;;;5112850;28;20081;-61
2023/08/03 03:25:02;;;;;;;11.15;5.78;;;;;;;;;;5111265;28;20052;-61
2023/08/03 03:27:28;;;;;;;13.05;5.68;;;;;;;;;;5112491;28;20040;-61
2023/08/03 03:29:54;;;;;;;18.42;5.80;;;;;;;;;;5112666;28;20051;-61
2023/08/03 03:32:20;;;;;;;10.63;5.40;;;;;;;;;;5112723;28;20476;-61
2023/08/03 03:34:46;;;;;;;11.15;5.82;;;;;;;;;;5112274;28;20281;-61
2023/08/03 03:37:12;;;;;;;10.20;5.10;;;;;;;;;;5111352;28;20047;-61
2023/08/03 03:39:38;;;;;;;13.70;5.30;;;;;;;;;;5112729;28;20046;-61
2023/08/03 03:42:04;;;;;;;13.43;5.18;;;;;;;;;;5111924;28;20085;-61
2023/08/03 03:44:30;;;;;;;12.90;5.07;;;;;;;;;;5112450;28;20370;-61
2023/08/03 03:46:56;;;;;;;15.63;5.68;;;;;;;;;;5094163;28;20111;-61
2023/08/03 03:49:22;;;;;;;14.00;5.15;;;;;;;;;;5112120;28;20046;-61
2023/08/03 03:51:48;;;;;;;12.93;5.32;;;;;;;;;;5112268;28;20039;-61
2023/08/03 03:54:14;;;;;;;14.82;4.85;;;;;;;;;;5112189;28;20100;-61
2023/08/03 03:56:40;;;;;;;17.23;5.22;;;;;;;;;;5111948;28;20075;-61
2023/08/03 03:59:06;;;;;;;19.05;4.85;;;;;;;;;;5112100;28;20043;-61
2023/08/03 04:01:32;;;;;;;16.83;4.75;;;;;;;;;;5112239;28;20039;-61
2023/08/03 04:03:58;;;;;;;15.93;4.88;;;;;;;;;;5112010;28;20084;-61
2023/08/03 04:06:24;;;;;;;14.55;5.18;;;;;;;;;;5112053;28;20047;-61
2023/08/03 04:08:50;;;;;;;18.90;5.22;;;;;;;;;;5111932;28;20048;-61
2023/08/03 04:11:16;;;;;;;15.30;4.30;;;;;;;;;;5111490;28;20047;-61
2023/08/03 04:13:42;;;;;;;14.57;4.43;;;;;;;;;;5111132;28;20293;-61
2023/08/03 04:16:08;;;;;;;23.02;4.78;;;;;;;;;;5111995;28;20111;-61
2023/08/03 04:18:35;;;;;;;16.67;4.80;;;;;;;;;;5111884;28;20046;-61
2023/08/03 04:21:01;;;;;;;21.70;5.13;;;;;;;;;;5111414;28;20040;-61
2023/08/03 04:23:27;;;;;;;18.92;4.65;;;;;;;;;;5111248;28;20073;-61
2023/08/03 04:25:53;;;;;;;12.52;4.22;;;;;;;;;;5111432;28;20482;-61
2023/08/03 04:28:18;;;;;;;15.60;4.30;;;;;;;;;;5109894;28;20446;-61
2023/08/03 04:30:44;;;;;;;13.70;4.35;;;;;;;;;;5111783;28;20040;-61
2023/08/03 04:33:10;;;;;;;19.23;4.22;;;;;;;;;;5111034;28;20050;-61
2023/08/03 04:35:36;;;;;;;15.05;3.75;;;;;;;;;;5111038;28;20097;-61
2023/08/03 04:38:02;;;;;;;15.55;3.35;;;;;;;;;;5111432;28;20478;-61
2023/08/03 04:40:28;;;;;;;20.75;3.78;;;;;;;;;;5111555;28;20036;-61
2023/08/03 04:42:54;;;;;;;15.32;3.33;;;;;;;;;;5111136;28;20084;-61
2023/08/03 04:45:20;;;;;;;14.52;2.88;;;;;;;;;;5112810;28;20155;-61
2023/08/03 04:47:46;;;;;;;13.57;2.83;;;;;;;;;;5113052;28;20553;-61
2023/08/03 04:50:12;;;;;;;18.88;3.20;;;;;;;;;;5111102;28;20096;-61
2023/08/03 04:52:38;;;;;;;10.20;2.72;;;;;;;;;;5112758;28;20092;-61
2023/08/03 04:55:05;;;;;;;12.98;2.65;;;;;;;;;;5111344;28;20040;-61
2023/08/03 04:57:31;;;;;;;16.33;2.88;;;;;;;;;;5112243;28;20047;-61
2023/08/03 04:59:57;;;;;;;18.45;3.10;;;;;;;;;;5112956;28;20088;-61
2023/08/03 05:02:23;;;;;;;14.95;2.97;;;;;;;;;;5112687;28;20077;-61
2023/08/03 05:04:49;;;;;;;14.88;3.00;;;;;;;;;;5112373;28;20043;-61
2023/08/03 05:07:15;;;;;;;14.45;3.17;;;;;;;;;;5112605;28;20043;-61
2023/08/03 05:09:41;;;;;;;13.30;3.17;;;;;;;;;;5112459;28;20405;-61
2023/08/03 05:12:07;;;;;;;16.83;3.15;;;;;;;;;;5112052;28;20054;-61
2023/08/03 05:14:33;;;;;;;16.63;3.35;;;;;;;;;;5112578;28;20047;-61
2023/08/03 05:16:59;;;;;;;9.43;3.10;;;;;;;;;;5112595;28;20052;-61
2023/08/03 05:19:25;;;;;;;15.73;3.45;;;;;;;;;;5112207;28;20035;-61
2023/08/03 05:21:51;;;;;;;17.67;3.83;;;;;;;;;;5112518;28;20123;-61
2023/08/03 05:24:18;;;;;;;14.27;3.47;;;;;;;;;;5145631;27;20089;-61
2023/08/03 05:26:44;;;;;;;17.38;3.72;;;;;;;;;;5096819;28;20039;-61
2023/08/03 05:29:11;;;;;;;11.73;3.30;;;;;;;;;;5092084;28;20047;-61
2023/08/03 05:31:37;;;;;;;12.57;3.67;;;;;;;;;;5092130;28;20441;-61
2023/08/03 05:34:03;;;;;;;13.27;3.63;;;;;;;;;;5090820;28;20076;-61
2023/08/03 05:36:29;;;;;;;13.43;3.63;;;;;;;;;;5091784;28;20127;-61
2023/08/03 05:38:55;;;;;;;11.98;3.15;;;;;;;;;;5091820;28;20048;-61
2023/08/03 05:41:22;;;;;;;11.05;3.50;;;;;;;;;;5091457;28;20043;-61
2023/08/03 05:43:48;;;;;;;16.20;3.88;;;;;;;;;;5091835;28;20051;-61
2023/08/03 05:46:15;;;;;;;11.00;3.80;;;;;;;;;;5091675;28;20375;-61
2023/08/03 05:48:41;;;;;;;13.93;3.92;;;;;;;;;;5091363;28;20416;-61
2023/08/03 05:51:10;;;;;;;13.63;4.40;;;;;;;;;;5091755;28;20032;-61
2023/08/03 05:53:36;;;;;;;12.40;4.00;;;;;;;;;;5091546;28;20043;-61
2023/08/03 05:56:08;;;;;;;13.48;4.45;;;;;;;;;;5091286;28;20690;-61
2023/08/03 05:58:35;;;;;;;15.40;3.95;;;;;;;;;;5091527;28;20051;-61
2023/08/03 06:01:01;;;;;;;14.23;3.90;;;;;;;;;;5091599;28;20132;-61
2023/08/03 06:03:27;;;;;;;12.27;3.55;;;;;;;;;;5090997;28;20063;-61
2023/08/03 06:05:55;;;;;;;13.52;3.75;;;;;;;;;;5091432;28;20032;-61
2023/08/03 06:08:22;;;;;;;9.23;4.00;;;;;;;;;;5101921;28;20043;-61
2023/08/03 06:10:52;;;;;;;13.30;4.15;;;;;;;;;;5111410;28;20035;-61
2023/08/03 06:13:18;;;;;;;14.27;4.20;;;;;;;;;;5111249;28;20053;-61
2023/08/03 06:15:45;;;;;;;13.75;4.15;;;;;;;;;;5111806;28;20062;-61
2023/08/03 06:18:13;;;;;;;17.10;4.57;;;;;;;;;;5144475;27;20036;-61
2023/08/03 06:20:43;;;;;;;13.32;4.00;;;;;;;;;;5111788;28;20066;-61
2023/08/03 06:23:23;;;;;;;16.90;4.90;;;;;;;;;;5111650;28;20494;-61
2023/08/03 06:25:50;;;;;;;12.15;4.68;;;;;;;;;;5110933;28;20048;-61
2023/08/03 06:28:17;;;;;;;9.02;3.78;;;;;;;;;;5111565;28;20464;-61
2023/08/03 06:30:43;;;;;;;12.13;4.20;;;;;;;;;;5111475;28;20035;-61
2023/08/03 06:33:11;;;;;;;11.88;4.25;;;;;;;;;;5110813;28;20075;-61
2023/08/03 06:35:39;;;;;;;12.38;3.50;;;;;;;;;;5111506;28;20042;-61
2023/08/03 06:38:05;;;;;;;15.77;3.80;;;;;;;;;;5111207;28;20106;-61
2023/08/03 06:40:32;;;;;;;12.30;4.07;;;;;;;;;;5111162;28;20046;-61
2023/08/03 06:42:59;;;;;;;14.50;3.70;;;;;;;;;;5111344;28;20135;-61
2023/08/03 06:45:25;;;;;;;9.88;3.00;;;;;;;;;;5111777;28;20028;-61
2023/08/03 06:47:53;;;;;;;10.43;4.30;;;;;;;;;;5115073;28;20663;-61
2023/08/03 06:50:19;;;;;;;10.77;3.22;;;;;;;;;;5114462;28;20047;-61
2023/08/03 06:52:45;;;;;;;8.90;3.53;;;;;;;;;;5115585;28;20061;-61
2023/08/03 06:55:11;;;;;;;11.32;3.67;;;;;;;;;;5115057;28;20040;-61
2023/08/03 06:57:37;;;;;;;9.88;3.38;;;;;;;;;;5115412;28;20627;-61
2023/08/03 07:00:03;;;;;;;12.38;3.03;;;;;;;;;;5115000;28;20047;-61
2023/08/03 07:02:29;;;;;;;9.75;3.65;;;;;;;;;;5114812;28;20088;-61
2023/08/03 07:04:55;;;;;;;6.95;2.60;;;;;;;;;;5115267;28;20042;-61
2023/08/03 07:07:21;;;;;;;9.10;2.75;;;;;;;;;;5114964;28;20075;-61
2023/08/03 07:09:48;;;;;;;7.57;2.10;;;;;;;;;;5114714;28;20074;-61
2023/08/03 07:12:14;;;;;;;6.43;2.10;;;;;;;;;;5114631;28;20454;-61
2023/08/03 07:14:40;;;;;;;10.18;2.60;;;;;;;;;;5114988;28;20055;-61
2023/08/03 07:17:07;;;;;;;8.25;2.58;;;;;;;;;;5114879;28;20035;-61
2023/08/03 07:19:33;;;;;;;6.22;2.08;;;;;;;;;;5114960;28;20032;-61
2023/08/03 07:21:59;;;;;;;6.88;2.10;;;;;;;;;;5114496;28;20520;-61
2023/08/03 07:24:28;;;;;;;6.53;1.98;;;;;;;;;;5114474;28;20739;-61
2023/08/03 07:26:54;;;;;;;7.82;1.90;;;;;;;;;;5114675;28;20074;-61
2023/08/03 07:29:20;;;;;;;6.07;1.73;;;;;;;;;;5114905;28;20043;-61
2023/08/03 07:31:48;;;;;;;4.43;1.95;;;;;;;;;;5114490;28;20656;-61
2023/08/03 07:34:14;;;;;;;5.50;1.75;;;;;;;;;;5114389;28;20039;-61
2023/08/03 07:36:40;;;;;;;7.13;1.50;;;;;;;;;;5114501;28;20442;-61
2023/08/03 07:39:06;;;;;;;4.25;1.33;;;;;;;;;;5114103;28;20115;-61
2023/08/03 07:41:32;;;;;;;5.38;1.60;;;;;;;;;;5113994;28;20040;-61
2023/08/03 07:43:58;;;;;;;3.42;1.40;;;;;;;;;;5114500;28;20231;-61
2023/08/03 07:46:24;;;;;;;4.50;1.55;;;;;;;;;;5114092;28;20118;-61
2023/08/03 07:48:50;;;;;;;3.17;1.30;;;;;;;;;;5114070;28;20052;-61
2023/08/03 07:51:17;;;;;;;6.95;1.70;;;;;;;;;;5114380;28;20046;-61
2023/08/03 07:53:44;;;;;;;4.50;1.63;;;;;;;;;;5112460;28;20075;-61
2023/08/03 07:56:22;;;;;;;3.78;1.20;;;;;;;;;;5114320;28;20123;-61
2023/08/03 07:58:49;;;;;;;3.25;1.23;;;;;;;;;;5113405;28;20040;-61
2023/08/03 08:01:15;;;;;;;5.50;1.40;;;;;;;;;;5113828;28;20044;-61
2023/08/03 08:03:41;;;;;;;2.13;0.93;;;;;;;;;;5113715;28;20498;-61
2023/08/03 08:06:08;;;;;;;4.57;1.10;;;;;;;;;;5114028;28;20039;-61
2023/08/03 08:08:34;;;;;;;7.13;1.17;;;;;;;;;;5113637;28;20116;-61
2023/08/03 08:11:00;;;;;;;4.45;1.23;;;;;;;;;;5114131;28;20047;-61
2023/08/03 08:13:27;;;;;;;4.25;1.13;;;;;;;;;;5113349;28;20486;-61
2023/08/03 08:15:57;;;;;;;3.92;1.00;;;;;;;;;;5113502;28;20168;-61
2023/08/03 08:18:23;;;;;;;2.35;0.90;;;;;;;;;;5113762;28;20046;-61
2023/08/03 08:20:59;;;;;;;3.28;0.95;;;;;;;;;;5113965;28;20043;-61
2023/08/03 08:23:25;;;;;;;4.88;1.08;;;;;;;;;;5113417;28;20075;-61
2023/08/03 08:25:51;;;;;;;3.75;0.90;;;;;;;;;;5113411;28;20043;-61
2023/08/03 08:28:17;;;;;;;2.90;0.85;;;;;;;;;;5113831;28;20047;-61
2023/08/03 08:30:46;;;;;;;3.25;0.80;;;;;;;;;;5113432;28;20046;-61
2023/08/03 08:33:16;;;;;;;6.10;0.82;;;;;;;;;;5113725;28;20031;-61
2023/08/03 08:35:42;;;;;;;2.97;0.95;;;;;;;;;;5113396;28;20560;-61
2023/08/03 08:38:15;;;;;;;7.07;1.15;;;;;;;;;;5113111;28;20628;-61
2023/08/03 08:40:42;;;;;;;3.83;0.85;;;;;;;;;;5113363;28;20047;-61
2023/08/03 08:43:08;;;;;;;4.88;1.35;;;;;;;;;;5113200;28;20676;-61
2023/08/03 08:45:38;;;;;;;4.07;0.98;;;;;;;;;;5112772;28;20038;-61
2023/08/03 08:48:05;;;;;;;2.50;0.93;;;;;;;;;;5113085;28;20036;-61
2023/08/03 08:50:31;;;;;;;5.35;1.00;;;;;;;;;;5113082;28;20040;-61
2023/08/03 08:52:57;;;;;;;5.03;1.10;;;;;;;;;;5112707;28;20046;-62
2023/08/03 08:55:25;;;;;;;2.85;0.90;;;;;;;;;;5113069;28;20040;-61
2023/08/03 08:57:51;;;;;;;2.17;0.90;;;;;;;;;;5112903;28;20047;-61
2023/08/03 09:00:18;;;;;;;3.97;0.70;;;;;;;;;;5112622;28;20466;-61
2023/08/03 09:02:44;;;;;;;6.40;1.35;;;;;;;;;;5112934;28;20067;-61
2023/08/03 09:05:10;;;;;;;3.63;0.85;;;;;;;;;;5113000;28;20089;-61
2023/08/03 09:07:36;;;;;;;3.38;0.80;;;;;;;;;;5112377;28;20619;-61
2023/08/03 09:10:02;;;;;;;4.03;0.80;;;;;;;;;;5112449;28;20043;-61
2023/08/03 09:12:28;;;;;;;2.53;0.88;;;;;;;;;;5145112;27;20055;-61
2023/08/03 09:14:58;;;;;;;3.65;0.88;;;;;;;;;;5110246;28;20054;-61
2023/08/03 09:17:24;;;;;;;3.80;1.10;;;;;;;;;;5128374;27;20416;-61
2023/08/03 09:19:51;;;;;;;2.95;1.10;;;;;;;;;;5145281;27;20126;-61
2023/08/03 09:22:18;;;;;;;5.50;1.00;;;;;;;;;;5111731;28;20046;-61
2023/08/03 09:24:47;;;;;;;2.97;0.95;;;;;;;;;;5112067;28;20073;-61
2023/08/03 09:27:17;;;;;;;4.65;0.77;;;;;;;;;;5125621;27;20043;-61
2023/08/03 09:29:43;;;;;;;3.75;0.90;;;;;;;;;;5107108;28;20058;-61
2023/08/03 09:32:10;;;;;;;5.93;1.00;;;;;;;;;;5091584;28;20143;-61
2023/08/03 09:34:44;;;;;;;3.25;1.13;;;;;;;;;;5091687;28;20032;-61
2023/08/03 09:37:10;;;;;;;2.83;0.80;;;;;;;;;;5091459;28;20028;-61
2023/08/03 09:39:38;;;;;;;5.38;0.90;;;;;;;;;;5092026;28;20413;-61
2023/08/03 09:42:05;;;;;;;4.97;0.80;;;;;;;;;;5091805;28;20046;-62
2023/08/03 09:44:33;;;;;;;4.15;1.42;;;;;;;;;;5090788;28;20113;-61
2023/08/03 09:47:00;;;;;;;4.10;1.15;;;;;;;;;;5124102;27;20086;-61
2023/08/03 09:49:26;;;;;;;3.67;0.80;;;;;;;;;;5091918;28;20036;-61
2023/08/03 09:51:53;;;;;;;2.22;0.70;;;;;;;;;;5091037;28;20524;-61
2023/08/03 09:54:29;;;;;;;4.18;0.80;;;;;;;;;;5090164;28;20044;-61
2023/08/03 09:56:59;;;;;;;5.07;0.90;;;;;;;;;;5091702;28;20387;-61
2023/08/03 09:59:26;;;;;;;3.20;0.88;;;;;;;;;;5090917;28;20044;-61
2023/08/03 10:01:53;;;;;;;6.32;1.25;;;;;;;;;;5091086;28;20044;-61
2023/08/03 10:04:20;;;;;;;3.05;0.82;;;;;;;;;;5089814;28;20055;-61
2023/08/03 10:06:47;;;;;;;4.00;0.90;;;;;;;;;;5089044;28;20525;-61
2023/08/03 10:09:15;;;;;;;6.07;1.10;;;;;;;;;;5140571;27;20054;-61
2023/08/03 10:11:47;;;;;;;5.43;1.23;;;;;;;;;;5109902;28;20639;-61
2023/08/03 10:14:16;;;;;;;4.65;0.90;;;;;;;;;;5108781;28;20062;-61
2023/08/03 10:16:42;;;;;;;3.35;1.08;;;;;;;;;;5108278;28;20100;-61
2023/08/03 10:19:09;;;;;;;4.25;1.15;;;;;;;;;;5109963;28;20032;-61
2023/08/03 10:21:35;;;;;;;4.00;1.55;;;;;;;;;;5108926;28;20047;-62
2023/08/03 10:24:14;;;;;;;5.18;1.00;;;;;;;;;;5109556;28;20047;-62
2023/08/03 10:26:41;;;;;;;2.65;0.90;;;;;;;;;;5094988;28;20043;-62
2023/08/03 10:29:07;;;;;;;3.90;1.20;;;;;;;;;;5121638;28;20044;-62
2023/08/03 10:31:34;;;;;;;6.38;1.38;;;;;;;;;;5089390;28;20098;-61
2023/08/03 10:34:00;;;;;;;7.78;1.52;;;;;;;;;;5089196;28;20067;-61
2023/08/03 10:36:33;;;;;;;3.45;1.08;;;;;;;;;;5088874;28;20397;-61
2023/08/03 10:39:00;;;;;;;6.65;1.30;;;;;;;;;;5089326;28;20048;-61
2023/08/03 10:41:27;;;;;;;4.25;1.33;;;;;;;;;;5089727;28;20398;-61
2023/08/03 10:44:02;;;;;;;3.75;1.30;;;;;;;;;;5088889;28;20432;-61
2023/08/03 10:46:56;;;;;;;5.00;1.23;;;;;;;;;;5089186;28;20044;-61
2023/08/03 10:49:42;;;;;;;5.13;1.58;;;;;;;;;;5088766;28;20324;-61
2023/08/03 10:52:17;;;;;;;2.50;0.80;;;;;;;;;;5088317;28;20036;-61
2023/08/03 10:54:43;;;;;;;3.33;1.00;;;;;;;;;;5088682;28;20089;-61
2023/08/03 10:57:10;;;;;;;6.45;0.95;;;;;;;;;;5089156;28;20093;-62
2023/08/03 10:59:40;;;;;;;5.03;1.20;;;;;;;;;;5087212;28;20039;-61
2023/08/03 11:02:13;;;;;;;4.72;1.20;;;;;;;;;;5088789;28;20119;-61
2023/08/03 11:04:39;;;;;;;15.48;2.15;;;;;;;;;;5089260;28;20467;-61
2023/08/03 11:07:06;;;;;;;8.23;1.30;;;;;;;;;;5088645;28;20044;-61
2023/08/03 11:09:32;;;;;;;6.78;1.45;;;;;;;;;;5109474;28;20110;-61
2023/08/03 11:11:58;;;;;;;3.50;0.88;;;;;;;;;;5108962;28;20453;-62
2023/08/03 11:14:24;;;;;;;4.70;1.45;;;;;;;;;;5108604;28;20382;-62
2023/08/03 11:16:50;;;;;;;4.75;1.10;;;;;;;;;;5109421;28;20042;-62
2023/08/03 11:19:16;;;;;;;4.40;1.00;;;;;;;;;;5109099;28;20039;-62
2023/08/03 11:21:42;;;;;;;4.32;0.90;;;;;;;;;;5108805;28;20389;-62
2023/08/03 11:24:10;;;;;;;3.63;0.73;;;;;;;;;;5108717;28;20055;-62
2023/08/03 11:26:36;;;;;;;5.15;0.90;;;;;;;;;;5108996;28;20048;-62
2023/08/03 11:29:03;;;;;;;1.92;0.47;;;;;;;;;;5108962;28;20036;-62
2023/08/03 11:31:29;;;;;;;3.40;0.73;;;;;;;;;;5108008;28;20444;-62
2023/08/03 11:33:55;;;;;;;2.33;0.70;;;;;;;;;;5111632;28;20050;-62
2023/08/03 11:36:22;;;;;;;2.10;0.63;;;;;;;;;;5111899;28;20039;-62
2023/08/03 11:38:49;;;;;;;2.00;0.52;;;;;;;;;;5112432;28;20043;-62
2023/08/03 11:41:16;;;;;;;1.48;0.70;;;;;;;;;;5112646;28;20036;-62
2023/08/03 11:43:42;;;;;;;4.53;0.70;;;;;;;;;;5112097;28;20470;-62
2023/08/03 11:46:08;;;;;;;4.10;0.75;;;;;;;;;;5112601;28;20094;-62
2023/08/03 11:48:34;;;;;;;2.38;0.55;;;;;;;;;;5111608;28;20079;-62
2023/08/03 11:51:00;;;;;;;2.88;0.90;;;;;;;;;;5112187;28;20042;-62
2023/08/03 11:53:26;;;;;;;4.47;0.70;;;;;;;;;;5112359;28;20044;-61
2023/08/03 11:55:53;;;;;;;3.60;0.80;;;;;;;;;;5112264;28;20031;-62
2023/08/03 11:58:28;;;;;;;3.72;0.68;;;;;;;;;;5112010;28;20096;-62
2023/08/03 12:00:59;;;;;;;4.25;1.15;;;;;;;;;;5112515;28;20449;-62
2023/08/03 12:03:32;;;;;;;4.18;1.08;;;;;;;;;;5112353;28;20044;-62
2023/08/03 12:06:01;;;;;;;4.82;0.90;;;;;;;;;;5111808;28;20155;-62
2023/08/03 12:08:27;;;;;;;2.58;0.80;;;;;;;;;;5110683;28;20058;-62
2023/08/03 12:11:00;;;;;;;4.38;0.80;;;;;;;;;;5112024;28;20497;-62
2023/08/03 12:13:26;;;;;;;7.05;0.93;;;;;;;;;;5109879;28;20055;-62
2023/08/03 12:15:53;;;;;;;2.55;0.70;;;;;;;;;;5111910;28;20036;-62
2023/08/03 12:18:20;;;;;;;3.17;1.10;;;;;;;;;;5112056;28;20047;-62
2023/08/03 12:20:47;;;;;;;3.88;0.73;;;;;;;;;;5111338;28;20047;-62
2023/08/03 12:23:13;;;;;;;2.95;1.08;;;;;;;;;;5111642;28;20039;-62
2023/08/03 12:25:39;;;;;;;6.75;0.90;;;;;;;;;;5138985;27;20443;-62
2023/08/03 12:28:05;;;;;;;4.45;1.00;;;;;;;;;;5091003;28;20071;-62
2023/08/03 12:30:31;;;;;;;3.83;1.10;;;;;;;;;;5091267;28;20032;-62
2023/08/03 12:32:57;;;;;;;5.40;1.20;;;;;;;;;;5091274;28;20368;-62
2023/08/03 12:35:23;;;;;;;5.35;1.42;;;;;;;;;;5090317;28;20079;-62
2023/08/03 12:37:49;;;;;;;5.47;1.15;;;;;;;;;;5091070;28;20079;-62
2023/08/03 12:40:16;;;;;;;3.33;0.90;;;;;;;;;;5091270;28;20068;-62
2023/08/03 12:42:42;;;;;;;3.15;0.98;;;;;;;;;;5090552;28;20040;-62
2023/08/03 12:45:08;;;;;;;2.90;0.80;;;;;;;;;;5090827;28;20040;-62
2023/08/03 12:47:35;;;;;;;2.50;0.63;;;;;;;;;;5090805;28;20055;-62
2023/08/03 12:50:01;;;;;;;1.08;0.63;;;;;;;;;;5090560;28;20039;-62
2023/08/03 12:52:27;;;;;;;2.15;0.70;;;;;;;;;;5090956;28;20052;-62
2023/08/03 12:54:53;;;;;;;2.92;0.90;;;;;;;;;;5090828;28;20278;-62
2023/08/03 12:57:19;;;;;;;2.45;0.80;;;;;;;;;;5090509;28;20123;-62
2023/08/03 12:59:45;;;;;;;3.63;1.08;;;;;;;;;;5090464;28;20036;-62
2023/08/03 13:02:11;;;;;;;4.10;1.00;;;;;;;;;;5090587;28;20039;-62
2023/08/03 13:04:37;;;;;;;4.63;1.30;;;;;;;;;;5090191;28;20150;-62
2023/08/03 13:07:03;;;;;;;4.82;1.23;;;;;;;;;;5090541;28;20173;-62
2023/08/03 13:09:29;;;;;;;7.22;1.33;;;;;;;;;;5111328;28;20047;-62
2023/08/03 13:11:56;;;;;;;5.40;1.25;;;;;;;;;;5110268;28;20055;-62
2023/08/03 13:14:22;;;;;;;5.05;1.45;;;;;;;;;;5143351;27;20409;-62
2023/08/03 13:16:48;;;;;;;7.90;1.50;;;;;;;;;;5110621;28;20042;-62
2023/08/03 13:19:14;;;;;;;5.53;1.35;;;;;;;;;;5110330;28;20027;-62
2023/08/03 13:21:41;;;;;;;5.75;1.20;;;;;;;;;;5110820;28;20039;-62
2023/08/03 13:24:07;;;;;;;5.78;1.02;;;;;;;;;;5110605;28;20446;-62
2023/08/03 13:26:33;;;;;;;8.57;1.40;;;;;;;;;;5096356;28;20047;-62
2023/08/03 13:28:59;;;;;;;3.38;0.88;;;;;;;;;;5090110;28;20398;-62
2023/08/03 13:31:25;;;;;;;3.20;0.90;;;;;;;;;;5090064;28;20044;-62
2023/08/03 13:33:51;;;;;;;5.70;0.85;;;;;;;;;;5089199;28;20131;-62
2023/08/03 13:36:17;;;;;;;5.65;1.27;;;;;;;;;;5089725;28;20032;-62
2023/08/03 13:38:43;;;;;;;5.55;1.13;;;;;;;;;;5089936;28;20035;-62
2023/08/03 13:41:09;;;;;;;4.20;1.40;;;;;;;;;;5089671;28;20043;-62
2023/08/03 13:43:37;;;;;;;5.45;1.40;;;;;;;;;;5089855;28;20123;-62
2023/08/03 13:46:03;;;;;;;5.10;1.60;;;;;;;;;;5090013;28;20089;-62
2023/08/03 13:48:29;;;;;;;8.02;1.65;;;;;;;;;;5089588;28;20401;-62
2023/08/03 13:50:56;;;;;;;5.70;1.88;;;;;;;;;;5089704;28;20067;-62
2023/08/03 13:53:22;;;;;;;6.70;2.20;;;;;;;;;;5088242;28;20051;-62
2023/08/03 13:55:48;;;;;;;6.78;2.00;;;;;;;;;;5089135;28;20094;-62
2023/08/03 13:58:14;;;;;;;7.55;2.25;;;;;;;;;;5089442;28;20074;-62
2023/08/03 14:00:41;;;;;;;10.45;2.30;;;;;;;;;;5089671;28;20112;-62
2023/08/03 14:03:07;;;;;;;7.68;2.40;;;;;;;;;;5089369;28;20043;-62
2023/08/03 14:05:33;;;;;;;5.75;2.13;;;;;;;;;;5089164;28;20048;-62
2023/08/03 14:07:59;;;;;;;13.68;2.92;;;;;;;;;;5096895;28;20043;-62
2023/08/03 14:10:25;;;;;;;5.28;2.10;;;;;;;;;;5109858;28;20039;-62
2023/08/03 14:12:54;;;;;;;10.20;2.28;;;;;;;;;;5109068;28;20055;-62
2023/08/03 14:15:21;;;;;;;9.75;2.35;;;;;;;;;;5109552;28;20412;-62
2023/08/03 14:17:49;;;;;;;11.15;2.40;;;;;;;;;;5109430;28;20048;-62
2023/08/03 14:20:15;;;;;;;9.20;2.63;;;;;;;;;;5109255;28;20044;-62
2023/08/03 14:22:41;;;;;;;10.48;2.85;;;;;;;;;;5109162;28;20042;-62
2023/08/03 14:25:07;;;;;;;11.13;2.78;;;;;;;;;;5107790;28;20040;-62
2023/08/03 14:27:33;;;;;;;10.45;2.30;;;;;;;;;;5088791;28;20090;-62
2023/08/03 14:30:00;;;;;;;9.35;2.70;;;;;;;;;;5089375;28;20048;-62
2023/08/03 14:32:27;;;;;;;10.05;2.33;;;;;;;;;;5089146;28;20048;-62
2023/08/03 14:34:53;;;;;;;9.35;2.50;;;;;;;;;;5088666;28;20040;-62